createdAt,value
2017-07-21T00:01:44.356Z,3.90
2017-07-21T00:04:18.908Z,4.20
2017-07-21T00:06:52.805Z,3.50
2017-07-21T00:09:27.345Z,3.10
2017-07-21T00:12:01.172Z,2.63
2017-07-21T00:14:36.521Z,2.50
2017-07-21T00:17:11.287Z,3.03
2017-07-21T00:19:45.228Z,2.90
2017-07-21T00:22:19.717Z,2.83
2017-07-21T00:24:54.420Z,2.80
2017-07-21T00:27:29.177Z,3.40
2017-07-21T00:30:03.964Z,4.10
2017-07-21T00:32:38.632Z,3.87
2017-07-21T00:35:12.733Z,3.90
2017-07-21T00:37:47.339Z,3.77
2017-07-21T00:40:21.341Z,3.70
2017-07-21T00:42:56.497Z,4.10
2017-07-21T00:45:30.518Z,3.50
2017-07-21T00:48:04.401Z,3.30
2017-07-21T00:50:38.909Z,3.00
2017-07-21T00:53:12.996Z,3.00
2017-07-21T00:55:47.444Z,3.27
2017-07-21T00:58:21.508Z,2.90
2017-07-21T01:00:56.118Z,3.43
2017-07-21T01:03:29.873Z,3.70
2017-07-21T01:06:04.412Z,2.97
2017-07-21T01:08:38.484Z,2.97
2017-07-21T01:11:12.931Z,3.40
2017-07-21T01:13:46.825Z,3.43
2017-07-21T01:16:20.432Z,3.37
2017-07-21T01:18:54.152Z,3.10
2017-07-21T01:21:27.864Z,4.73
2017-07-21T01:24:01.537Z,3.53
2017-07-21T01:26:35.317Z,4.10
2017-07-21T01:29:09.063Z,3.87
2017-07-21T01:31:43.494Z,4.07
2017-07-21T01:34:17.497Z,5.00
2017-07-21T01:36:51.113Z,3.90
2017-07-21T01:39:24.881Z,4.30
2017-07-21T01:41:59.234Z,4.10
2017-07-21T01:44:33.229Z,3.70
2017-07-21T01:47:06.856Z,3.73
2017-07-21T01:49:40.724Z,3.33
2017-07-21T01:52:15.269Z,3.90
2017-07-21T01:54:49.181Z,4.37
2017-07-21T01:57:22.785Z,4.00
2017-07-21T01:59:56.570Z,3.43
2017-07-21T02:02:31.139Z,4.10
2017-07-21T02:05:05.192Z,4.00
2017-07-21T02:07:39.798Z,4.40
2017-07-21T02:10:13.472Z,3.70
2017-07-21T02:12:48.003Z,3.13
2017-07-21T02:15:21.942Z,4.60
2017-07-21T02:17:57.328Z,4.20
2017-07-21T02:20:31.433Z,3.23
2017-07-21T02:23:05.998Z,3.43
2017-07-21T02:25:39.855Z,3.90
2017-07-21T02:28:14.393Z,4.07
2017-07-21T02:30:48.283Z,3.97
2017-07-21T02:33:21.952Z,3.90
2017-07-21T02:35:55.731Z,3.87
2017-07-21T02:38:30.228Z,3.60
2017-07-21T02:41:04.097Z,3.87
2017-07-21T02:43:37.745Z,3.97
2017-07-21T02:46:11.528Z,4.33
2017-07-21T02:48:46.065Z,4.30
2017-07-21T02:51:20.073Z,4.20
2017-07-21T02:53:54.604Z,3.30
2017-07-21T02:56:28.581Z,3.67
2017-07-21T02:59:03.033Z,3.73
2017-07-21T03:01:37.201Z,3.80
2017-07-21T03:04:11.645Z,4.20
2017-07-21T03:06:45.345Z,4.13
2017-07-21T03:09:19.797Z,4.40
2017-07-21T03:11:53.792Z,3.43
2017-07-21T03:14:28.229Z,4.63
2017-07-21T03:17:03.170Z,3.90
2017-07-21T03:19:36.873Z,4.30
2017-07-21T03:22:11.317Z,4.10
2017-07-21T03:24:45.002Z,4.67
2017-07-21T03:27:18.673Z,4.67
2017-07-21T03:29:52.361Z,4.03
2017-07-21T03:32:26.954Z,3.63
2017-07-21T03:35:00.736Z,4.30
2017-07-21T03:37:35.397Z,3.87
2017-07-21T03:40:10.089Z,4.70
2017-07-21T03:42:44.743Z,5.30
2017-07-21T03:45:19.346Z,4.90
2017-07-21T03:47:54.101Z,4.40
2017-07-21T03:50:27.857Z,4.47
2017-07-21T03:53:02.421Z,4.13
2017-07-21T03:55:36.017Z,4.37
2017-07-21T03:58:10.445Z,4.03
2017-07-21T04:00:44.450Z,4.53
2017-07-21T04:03:18.193Z,4.77
2017-07-21T04:05:52.740Z,4.50
2017-07-21T04:08:26.830Z,4.73
2017-07-21T04:11:00.560Z,4.17
2017-07-21T04:13:35.237Z,4.70
2017-07-21T04:16:09.174Z,4.10
2017-07-21T04:18:42.990Z,4.40
2017-07-21T04:21:16.752Z,4.10
2017-07-21T04:23:50.670Z,3.93
2017-07-21T04:26:25.152Z,4.40
2017-07-21T04:28:59.060Z,3.97
2017-07-21T04:31:32.608Z,4.57
2017-07-21T04:34:07.200Z,4.83
2017-07-21T04:36:41.580Z,4.63
2017-07-21T04:39:15.604Z,5.10
2017-07-21T04:41:49.367Z,4.33
2017-07-21T04:44:23.169Z,4.40
2017-07-21T04:46:57.757Z,5.40
2017-07-21T04:49:32.309Z,5.50
2017-07-21T04:52:06.981Z,4.43
2017-07-21T04:54:41.117Z,5.27
2017-07-21T04:57:14.803Z,5.27
2017-07-21T04:59:48.568Z,5.20
2017-07-21T05:02:22.202Z,4.80
2017-07-21T05:04:56.872Z,4.50
2017-07-21T05:07:30.792Z,4.90
2017-07-21T05:10:04.677Z,7.27
2017-07-21T05:12:39.141Z,4.93
2017-07-21T05:15:13.650Z,4.50
2017-07-21T05:17:47.553Z,3.80
2017-07-21T05:20:21.477Z,4.00
2017-07-21T05:22:55.258Z,3.93
2017-07-21T05:25:29.053Z,3.60
2017-07-21T05:28:02.652Z,3.03
2017-07-21T05:30:36.521Z,3.47
2017-07-21T05:33:10.223Z,3.67
2017-07-21T05:35:44.024Z,3.37
2017-07-21T05:38:18.593Z,4.00
2017-07-21T05:40:52.367Z,3.00
2017-07-21T05:43:26.799Z,3.80
2017-07-21T05:46:01.558Z,3.80
2017-07-21T05:48:36.364Z,3.73
2017-07-21T05:51:11.001Z,4.00
2017-07-21T05:53:44.824Z,3.77
2017-07-21T05:56:18.582Z,4.80
2017-07-21T05:58:52.186Z,3.70
2017-07-21T06:01:26.758Z,3.87
2017-07-21T06:04:00.507Z,4.23
2017-07-21T06:06:35.069Z,3.27
2017-07-21T06:09:08.985Z,2.90
2017-07-21T06:11:42.861Z,3.00
2017-07-21T06:14:17.340Z,3.00
2017-07-21T06:16:53.249Z,3.23
2017-07-21T06:19:26.981Z,3.30
2017-07-21T06:22:02.430Z,2.90
2017-07-21T06:24:36.312Z,3.00
2017-07-21T06:27:11.042Z,3.57
2017-07-21T06:29:44.709Z,3.50
2017-07-21T06:32:18.505Z,4.67
2017-07-21T06:34:52.116Z,3.30
2017-07-21T06:37:25.980Z,3.53
2017-07-21T06:39:59.632Z,2.90
2017-07-21T06:42:33.405Z,2.80
2017-07-21T06:45:07.114Z,2.73
2017-07-21T06:47:42.861Z,2.47
2017-07-21T06:50:16.537Z,2.93
2017-07-21T06:52:50.958Z,2.50
2017-07-21T06:55:25.641Z,3.57
2017-07-21T06:58:00.604Z,2.93
2017-07-21T07:00:34.525Z,3.00
2017-07-21T07:03:08.329Z,2.70
2017-07-21T07:05:41.939Z,3.90
2017-07-21T07:08:16.564Z,3.00
2017-07-21T07:10:50.211Z,3.30
2017-07-21T07:13:23.968Z,3.00
2017-07-21T07:15:58.456Z,3.33
2017-07-21T07:18:32.229Z,3.10
2017-07-21T07:21:07.502Z,2.73
2017-07-21T07:23:41.406Z,2.37
2017-07-21T07:26:15.032Z,3.30
2017-07-21T07:28:49.690Z,3.17
2017-07-21T07:31:24.197Z,2.70
2017-07-21T07:33:58.710Z,2.80
2017-07-21T07:36:32.625Z,2.53
2017-07-21T07:39:07.340Z,2.53
2017-07-21T07:41:41.253Z,2.53
2017-07-21T07:44:15.817Z,2.00
2017-07-21T07:46:50.505Z,2.17
2017-07-21T07:49:25.157Z,2.67
2017-07-21T07:51:58.996Z,2.50
2017-07-21T07:54:33.566Z,2.43
2017-07-21T07:57:08.154Z,2.50
2017-07-21T07:59:42.134Z,2.53
2017-07-21T08:02:15.886Z,2.13
2017-07-21T08:04:50.464Z,2.73
2017-07-21T08:07:24.212Z,2.10
2017-07-21T08:09:58.669Z,3.13
2017-07-21T08:12:33.241Z,2.60
2017-07-21T08:15:07.184Z,2.30
2017-07-21T08:17:41.657Z,2.00
2017-07-21T08:20:16.264Z,2.43
2017-07-21T08:22:49.861Z,2.20
2017-07-21T08:25:23.761Z,2.17
2017-07-21T08:27:58.264Z,2.30
2017-07-21T08:30:32.789Z,1.80
2017-07-21T08:33:06.544Z,1.80
2017-07-21T08:35:41.116Z,1.70
2017-07-21T08:38:14.781Z,1.50
2017-07-21T08:40:48.561Z,1.60
2017-07-21T08:43:23.100Z,2.30
2017-07-21T08:45:56.957Z,2.00
2017-07-21T08:48:30.676Z,2.00
2017-07-21T08:51:04.516Z,1.80
2017-07-21T08:53:38.102Z,1.80
2017-07-21T08:56:11.762Z,1.40
2017-07-21T08:58:46.167Z,1.90
2017-07-21T09:01:20.250Z,1.57
2017-07-21T09:03:53.989Z,1.37
2017-07-21T09:06:28.446Z,1.30
2017-07-21T09:09:02.348Z,1.90
2017-07-21T09:11:35.993Z,1.40
2017-07-21T09:14:11.346Z,1.70
2017-07-21T09:16:45.296Z,1.50
2017-07-21T09:19:19.672Z,1.20
2017-07-21T09:21:53.768Z,1.50
2017-07-21T09:24:28.292Z,1.07
2017-07-21T09:27:01.973Z,1.60
2017-07-21T09:29:36.338Z,1.30
2017-07-21T09:32:10.300Z,1.20
2017-07-21T09:34:43.901Z,1.40
2017-07-21T09:37:18.493Z,1.40
2017-07-21T09:39:52.329Z,1.10
2017-07-21T09:42:26.920Z,1.50
2017-07-21T09:45:00.720Z,1.53
2017-07-21T09:47:36.263Z,1.20
2017-07-21T09:50:10.765Z,1.13
2017-07-21T09:52:44.696Z,1.40
2017-07-21T09:55:18.489Z,1.43
2017-07-21T09:57:52.380Z,1.20
2017-07-21T10:00:26.137Z,1.20
2017-07-21T10:03:00.761Z,1.57
2017-07-21T10:05:34.649Z,1.53
2017-07-21T10:08:09.299Z,1.50
2017-07-21T10:10:43.253Z,1.37
2017-07-21T10:13:17.918Z,1.20
2017-07-21T10:15:51.932Z,1.37
2017-07-21T10:18:26.643Z,1.50
2017-07-21T10:21:00.390Z,1.50
2017-07-21T10:23:34.983Z,1.30
2017-07-21T10:26:08.820Z,1.30
2017-07-21T10:28:42.660Z,1.37
2017-07-21T10:31:16.385Z,1.50
2017-07-21T10:33:50.282Z,1.40
2017-07-21T10:36:23.881Z,1.20
2017-07-21T10:38:58.440Z,1.50
2017-07-21T10:41:32.120Z,1.30
2017-07-21T10:44:06.026Z,1.20
2017-07-21T10:46:40.537Z,1.60
2017-07-21T10:49:14.540Z,1.70
2017-07-21T10:51:49.068Z,1.60
2017-07-21T10:54:24.044Z,1.47
2017-07-21T10:56:57.764Z,1.77
2017-07-21T10:59:31.572Z,1.30
2017-07-21T11:02:05.241Z,1.83
2017-07-21T11:04:39.881Z,1.80
2017-07-21T11:07:13.849Z,1.50
2017-07-21T11:09:47.609Z,1.70
2017-07-21T11:12:21.314Z,1.50
2017-07-21T11:14:55.937Z,1.60
2017-07-21T11:17:29.844Z,1.90
2017-07-21T11:20:04.374Z,1.80
2017-07-21T11:22:38.374Z,1.40
2017-07-21T11:25:12.165Z,1.70
2017-07-21T11:27:46.777Z,1.90
2017-07-21T11:30:20.515Z,1.80
2017-07-21T11:32:54.965Z,1.83
2017-07-21T11:35:28.765Z,1.40
2017-07-21T11:38:02.512Z,1.60
2017-07-21T11:40:36.217Z,2.00
2017-07-21T11:43:09.960Z,1.50
2017-07-21T11:45:43.681Z,1.73
2017-07-21T11:48:17.432Z,1.50
2017-07-21T11:50:51.993Z,1.53
2017-07-21T11:53:25.884Z,1.77
2017-07-21T11:56:00.401Z,1.47
2017-07-21T11:58:34.317Z,1.70
2017-07-21T12:01:08.221Z,1.70
2017-07-21T12:03:41.827Z,1.87
2017-07-21T12:06:16.341Z,1.73
2017-07-21T12:08:50.185Z,1.80
2017-07-21T12:11:24.057Z,1.73
2017-07-21T12:13:58.564Z,1.80
2017-07-21T12:16:32.421Z,1.50
2017-07-21T12:19:06.202Z,1.83
2017-07-21T12:21:39.993Z,2.00
2017-07-21T12:24:13.704Z,1.93
2017-07-21T12:26:48.224Z,1.70
2017-07-21T12:29:22.008Z,1.80
2017-07-21T12:31:55.881Z,1.37
2017-07-21T12:34:29.540Z,1.60
2017-07-21T12:37:03.421Z,1.33
2017-07-21T12:39:37.056Z,1.90
2017-07-21T12:42:10.920Z,1.93
2017-07-21T12:44:45.544Z,2.03
2017-07-21T12:47:20.537Z,1.90
2017-07-21T12:49:55.001Z,1.87
2017-07-21T12:52:29.048Z,1.80
2017-07-21T12:55:03.541Z,2.30
2017-07-21T12:57:37.628Z,1.80
2017-07-21T13:00:11.405Z,1.80
2017-07-21T13:02:45.125Z,2.07
2017-07-21T13:05:18.876Z,1.87
2017-07-21T13:07:53.353Z,1.60
2017-07-21T13:10:27.300Z,1.83
2017-07-21T13:13:01.833Z,1.87
2017-07-21T13:15:35.597Z,1.80
2017-07-21T13:18:10.251Z,2.37
2017-07-21T13:20:44.774Z,2.23
2017-07-21T13:23:19.017Z,1.90
2017-07-21T13:25:54.226Z,1.77
2017-07-21T13:28:28.312Z,1.83
2017-07-21T13:31:02.065Z,1.80
2017-07-21T13:33:35.825Z,2.50
2017-07-21T13:36:09.525Z,2.00
2017-07-21T13:38:44.093Z,2.00
2017-07-21T13:41:18.692Z,2.13
2017-07-21T13:43:52.849Z,2.30
2017-07-21T13:46:27.421Z,1.60
2017-07-21T13:49:02.369Z,2.27
2017-07-21T13:51:36.144Z,2.23
2017-07-21T13:54:10.029Z,2.30
2017-07-21T13:56:43.629Z,5.80
2017-07-21T13:59:18.140Z,2.30
2017-07-21T14:01:51.961Z,2.03
2017-07-21T14:04:26.489Z,2.03
2017-07-21T14:07:00.311Z,2.00
2017-07-21T14:09:34.727Z,2.13
2017-07-21T14:12:08.697Z,2.00
2017-07-21T14:14:43.363Z,2.77
2017-07-21T14:17:17.205Z,1.90
2017-07-21T14:19:50.893Z,1.93
2017-07-21T14:22:25.329Z,2.17
2017-07-21T14:24:59.160Z,2.30
2017-07-21T14:27:33.660Z,2.17
2017-07-21T14:30:07.552Z,2.50
2017-07-21T14:32:41.266Z,5.10
2017-07-21T14:35:14.953Z,1.80
2017-07-21T14:37:48.557Z,2.47
2017-07-21T14:40:22.868Z,6.37
2017-07-21T14:42:57.924Z,1.53
2017-07-21T14:45:32.033Z,2.33
2017-07-21T14:48:05.643Z,2.10
2017-07-21T14:50:39.481Z,1.70
2017-07-21T14:53:14.692Z,2.10
2017-07-21T14:55:48.677Z,2.70
2017-07-21T14:58:22.331Z,2.00
2017-07-21T15:00:56.178Z,2.00
2017-07-21T15:03:30.547Z,2.53
2017-07-21T15:06:04.397Z,1.77
2017-07-21T15:08:38.083Z,1.90
2017-07-21T15:11:11.743Z,2.83
2017-07-21T15:13:45.382Z,6.13
2017-07-21T15:16:19.912Z,2.20
2017-07-21T15:18:53.812Z,1.93
2017-07-21T15:21:28.454Z,2.00
2017-07-21T15:24:02.448Z,1.73
2017-07-21T15:26:37.125Z,2.10
2017-07-21T15:29:10.785Z,1.70
2017-07-21T15:31:44.516Z,1.90
2017-07-21T15:34:18.161Z,2.07
2017-07-21T15:36:52.605Z,2.50
2017-07-21T15:39:26.420Z,2.23
2017-07-21T15:42:01.128Z,2.00
2017-07-21T15:44:34.953Z,3.47
2017-07-21T15:47:10.726Z,2.37
2017-07-21T15:49:44.508Z,2.67
2017-07-21T15:52:18.280Z,2.17
2017-07-21T15:54:51.914Z,2.20
2017-07-21T15:57:25.625Z,2.50
2017-07-21T15:59:59.321Z,2.40
2017-07-21T16:02:33.141Z,2.10
2017-07-21T16:05:06.733Z,2.33
2017-07-21T16:07:40.437Z,2.00
2017-07-21T16:10:14.090Z,3.13
2017-07-21T16:12:47.969Z,2.20
2017-07-21T16:15:23.016Z,2.07
2017-07-21T16:17:57.919Z,2.40
2017-07-21T16:20:31.920Z,2.20
2017-07-21T16:23:05.667Z,2.20
2017-07-21T16:25:40.201Z,1.87
2017-07-21T16:28:14.277Z,2.10
2017-07-21T16:31:04.796Z,1.90
2017-07-21T16:33:38.784Z,2.30
2017-07-21T16:36:14.065Z,2.87
2017-07-21T16:38:48.741Z,2.50
2017-07-21T16:41:23.325Z,2.43
2017-07-21T16:43:57.422Z,2.37
2017-07-21T16:46:31.955Z,2.37
2017-07-21T16:49:07.697Z,2.07
2017-07-21T16:51:42.236Z,2.40
2017-07-21T16:54:16.323Z,2.40
2017-07-21T16:56:50.764Z,2.90
2017-07-21T16:59:24.797Z,2.27
2017-07-21T17:01:59.339Z,2.40
2017-07-21T17:04:34.004Z,2.70
2017-07-21T17:07:07.596Z,2.60
2017-07-21T17:09:42.278Z,2.37
2017-07-21T17:12:16.301Z,2.60
2017-07-21T17:14:50.109Z,2.23
2017-07-21T17:17:24.675Z,2.13
2017-07-21T17:19:59.252Z,2.00
2017-07-21T17:22:33.062Z,2.13
2017-07-21T17:25:07.481Z,2.70
2017-07-21T17:27:41.302Z,2.30
2017-07-21T17:30:15.084Z,2.53
2017-07-21T17:32:48.898Z,2.40
2017-07-21T17:35:24.349Z,2.40
2017-07-21T17:37:58.303Z,2.40
2017-07-21T17:40:32.963Z,2.30
2017-07-21T17:43:06.785Z,2.17
2017-07-21T17:45:40.641Z,2.33
2017-07-21T17:48:14.216Z,2.47
2017-07-21T17:50:48.831Z,1.93
2017-07-21T17:53:22.753Z,2.20
2017-07-21T17:55:56.626Z,2.63
2017-07-21T17:58:30.428Z,2.77
2017-07-21T18:01:04.284Z,2.47
2017-07-21T18:03:38.741Z,2.17
2017-07-21T18:06:13.190Z,2.50
2017-07-21T18:08:47.097Z,2.37
2017-07-21T18:11:20.982Z,2.57
2017-07-21T18:13:54.809Z,2.93
2017-07-21T18:16:28.664Z,2.80
2017-07-21T18:19:03.196Z,2.53
2017-07-21T18:21:37.380Z,2.50
2017-07-21T18:24:12.557Z,2.90
2017-07-21T18:26:46.651Z,2.93
2017-07-21T18:29:20.445Z,2.60
2017-07-21T18:31:54.284Z,2.83
2017-07-21T18:34:29.622Z,2.80
2017-07-21T18:37:03.728Z,3.20
2017-07-21T18:39:37.337Z,3.00
2017-07-21T18:42:11.140Z,2.73
2017-07-21T18:44:45.570Z,2.80
2017-07-21T18:47:19.580Z,3.00
2017-07-21T18:49:53.998Z,2.63
2017-07-21T18:52:28.185Z,3.00
2017-07-21T18:55:03.449Z,2.77
2017-07-21T18:57:37.404Z,2.63
2017-07-21T19:00:11.777Z,3.27
2017-07-21T19:02:45.813Z,2.77
2017-07-21T19:05:20.313Z,2.53
2017-07-21T19:07:54.360Z,2.63
2017-07-21T19:10:28.754Z,2.53
2017-07-21T19:13:03.544Z,3.20
2017-07-21T19:15:37.309Z,3.80
2017-07-21T19:18:11.841Z,2.80
2017-07-21T19:20:45.545Z,3.30
2017-07-21T19:23:20.044Z,2.90
2017-07-21T19:25:54.640Z,3.43
2017-07-21T19:28:29.521Z,3.50
2017-07-21T19:31:04.113Z,3.62
2017-07-21T19:33:38.121Z,4.47
2017-07-21T19:36:11.813Z,3.40
2017-07-21T19:38:45.453Z,3.47
2017-07-21T19:41:19.197Z,3.10
2017-07-21T19:43:53.740Z,3.23
2017-07-21T19:46:28.248Z,3.30
2017-07-21T19:49:02.069Z,3.80
2017-07-21T19:51:35.759Z,3.60
2017-07-21T19:54:10.404Z,3.53
2017-07-21T19:56:44.728Z,3.40
2017-07-21T19:59:18.661Z,4.00
2017-07-21T20:01:53.089Z,3.70
2017-07-21T20:04:27.569Z,3.13
2017-07-21T20:07:02.229Z,3.80
2017-07-21T20:09:36.138Z,3.50
2017-07-21T20:12:09.806Z,3.60
2017-07-21T20:14:43.501Z,3.50
2017-07-21T20:17:18.009Z,2.77
2017-07-21T20:19:52.836Z,3.20
2017-07-21T20:22:27.488Z,3.60
2017-07-21T20:25:01.578Z,3.30
2017-07-21T20:27:36.022Z,3.80
2017-07-21T20:30:09.936Z,4.03
2017-07-21T20:32:43.820Z,4.20
2017-07-21T20:35:18.447Z,3.90
2017-07-21T20:37:52.797Z,3.07
2017-07-21T20:40:26.869Z,4.20
2017-07-21T20:43:02.299Z,3.80
2017-07-21T20:45:36.402Z,3.83
2017-07-21T20:48:10.877Z,3.47
2017-07-21T20:50:45.141Z,4.53
2017-07-21T20:53:19.616Z,3.63
2017-07-21T20:55:53.624Z,4.27
2017-07-21T20:58:28.864Z,4.20
2017-07-21T21:01:02.765Z,3.73
2017-07-21T21:03:37.374Z,3.83
2017-07-21T21:06:12.008Z,3.63
2017-07-21T21:08:46.386Z,4.03
2017-07-21T21:11:21.028Z,3.50
2017-07-21T21:13:54.844Z,4.23
2017-07-21T21:16:29.368Z,5.40
2017-07-21T21:19:03.186Z,5.73
2017-07-21T21:21:37.070Z,4.50
2017-07-21T21:24:12.253Z,3.60
2017-07-21T21:26:46.274Z,4.30
2017-07-21T21:29:20.073Z,3.87
2017-07-21T21:31:54.732Z,3.97
2017-07-21T21:34:28.477Z,3.43
2017-07-21T21:37:02.473Z,3.80
2017-07-21T21:39:37.088Z,3.30
2017-07-21T21:42:11.488Z,3.77
2017-07-21T21:44:45.569Z,3.27
2017-07-21T21:47:21.104Z,3.40
2017-07-21T21:49:54.856Z,3.47
2017-07-21T21:52:28.625Z,3.20
2017-07-21T21:55:02.434Z,3.00
2017-07-21T21:57:37.085Z,3.30
2017-07-21T22:00:11.676Z,3.90
2017-07-21T22:02:45.957Z,3.40
2017-07-21T22:05:19.541Z,3.37
2017-07-21T22:07:54.073Z,4.00
2017-07-21T22:10:27.872Z,3.40
2017-07-21T22:13:02.382Z,3.37
2017-07-21T22:15:47.966Z,3.20
2017-07-21T22:18:21.887Z,3.20
2017-07-21T22:20:55.489Z,3.53
2017-07-21T22:23:29.401Z,3.00
2017-07-21T22:26:03.093Z,2.90
2017-07-21T22:28:36.889Z,3.40
2017-07-21T22:31:10.502Z,3.60
2017-07-21T22:33:45.044Z,3.67
2017-07-21T22:36:18.957Z,3.20
2017-07-21T22:38:52.752Z,3.57
2017-07-21T22:41:27.269Z,3.30
2017-07-21T22:44:01.196Z,4.10
2017-07-21T22:46:34.797Z,3.70
2017-07-21T22:49:10.130Z,4.37
2017-07-21T22:51:44.698Z,4.20
2017-07-21T22:54:18.601Z,4.40
2017-07-21T22:56:53.117Z,4.57
2017-07-21T22:59:27.594Z,5.67
2017-07-21T23:02:01.335Z,5.00
2017-07-21T23:04:36.645Z,4.57
2017-07-21T23:07:10.658Z,5.50
2017-07-21T23:09:45.161Z,6.00
2017-07-21T23:12:19.082Z,5.90
2017-07-21T23:14:52.880Z,5.10
2017-07-21T23:17:26.490Z,6.70
2017-07-21T23:20:00.200Z,5.90
2017-07-21T23:22:33.820Z,6.40
2017-07-21T23:25:08.441Z,5.50
2017-07-21T23:27:42.048Z,5.13
2017-07-21T23:30:15.805Z,5.73
2017-07-21T23:32:49.357Z,6.43
2017-07-21T23:35:23.266Z,6.23
2017-07-21T23:37:57.606Z,7.23
2017-07-21T23:40:31.721Z,6.50
2017-07-21T23:43:05.320Z,6.03
2017-07-21T23:45:39.104Z,5.40
2017-07-21T23:48:13.641Z,6.67
2017-07-21T23:50:48.454Z,5.97
2017-07-21T23:53:22.384Z,6.20
2017-07-21T23:55:57.017Z,6.30
2017-07-21T23:58:30.680Z,6.80
